createdAt,value
2022-12-03T00:00:19.755Z,32.03
2022-12-03T00:02:47.562Z,40.57
2022-12-03T00:05:15.342Z,36.17
2022-12-03T00:07:43.043Z,24.90
2022-12-03T00:10:11.384Z,36.90
2022-12-03T00:12:39.101Z,40.57
2022-12-03T00:15:09.932Z,27.53
2022-12-03T00:17:37.718Z,26.53
2022-12-03T00:20:06.757Z,43.23
2022-12-03T00:22:34.434Z,41.53
2022-12-03T00:25:02.087Z,43.07
2022-12-03T00:27:29.776Z,29.30
2022-12-03T00:29:57.465Z,30.20
2022-12-03T00:32:26.464Z,42.03
2022-12-03T00:34:54.386Z,33.87
2022-12-03T00:37:22.229Z,32.07
2022-12-03T00:39:50.366Z,44.13
2022-12-03T00:42:18.076Z,48.23
2022-12-03T00:44:45.741Z,35.00
2022-12-03T00:47:13.522Z,42.07
2022-12-03T00:49:42.648Z,38.27
2022-12-03T00:52:10.295Z,31.17
2022-12-03T00:54:38.002Z,35.53
2022-12-03T00:57:05.685Z,34.43
2022-12-03T00:59:33.384Z,32.90
2022-12-03T01:02:01.083Z,38.20
2022-12-03T01:04:28.891Z,41.93
2022-12-03T01:06:57.938Z,31.90
2022-12-03T01:09:25.609Z,36.80
2022-12-03T01:11:53.427Z,35.13
2022-12-03T01:14:21.397Z,37.03
2022-12-03T01:16:49.329Z,42.33
2022-12-03T01:19:17.873Z,31.43
2022-12-03T01:21:46.606Z,35.97
2022-12-03T01:24:16.016Z,43.37
2022-12-03T01:26:43.738Z,41.73
2022-12-03T01:29:11.516Z,27.97
2022-12-03T01:31:56.913Z,22.20
2022-12-03T01:34:24.886Z,42.53
2022-12-03T01:36:53.366Z,40.43
2022-12-03T01:39:22.387Z,37.43
2022-12-03T01:41:52.168Z,43.87
2022-12-03T01:44:24.142Z,31.83
2022-12-03T01:46:53.637Z,35.67
2022-12-03T01:49:24.320Z,41.60
2022-12-03T01:51:53.491Z,48.90
2022-12-03T01:54:27.189Z,45.47
2022-12-03T01:56:56.355Z,40.57
2022-12-03T01:59:31.913Z,47.27
2022-12-03T02:02:00.278Z,39.97
2022-12-03T02:04:28.218Z,54.03
2022-12-03T02:06:55.992Z,43.27
2022-12-03T02:09:25.016Z,44.23
2022-12-03T02:11:53.429Z,47.07
2022-12-03T02:14:22.812Z,31.83
2022-12-03T02:16:50.613Z,44.10
2022-12-03T02:19:25.184Z,40.83
2022-12-03T02:22:00.945Z,44.67
2022-12-03T02:24:36.730Z,45.33
2022-12-03T02:27:05.773Z,41.47
2022-12-03T02:29:33.478Z,41.63
2022-12-03T02:32:01.277Z,42.17
2022-12-03T02:34:40.400Z,45.60
2022-12-03T02:37:12.954Z,40.60
2022-12-03T02:39:45.286Z,43.10
2022-12-03T02:42:31.971Z,44.40
2022-12-03T02:45:05.307Z,37.57
2022-12-03T02:47:34.805Z,41.97
2022-12-03T02:50:02.993Z,32.20
2022-12-03T02:52:31.149Z,33.23
2022-12-03T02:54:59.333Z,39.07
2022-12-03T02:57:28.417Z,39.40
2022-12-03T02:59:56.347Z,34.13
2022-12-03T03:02:24.215Z,42.97
2022-12-03T03:04:52.441Z,38.80
2022-12-03T03:07:20.386Z,29.43
2022-12-03T03:09:48.311Z,33.13
2022-12-03T03:12:16.063Z,21.03
2022-12-03T03:14:45.174Z,41.03
2022-12-03T03:17:12.849Z,40.90
2022-12-03T03:19:40.549Z,36.07
2022-12-03T03:22:08.218Z,28.20
2022-12-03T03:24:35.919Z,35.80
2022-12-03T03:27:03.637Z,36.73
2022-12-03T03:29:32.229Z,36.03
2022-12-03T03:32:02.254Z,34.10
2022-12-03T03:34:31.249Z,34.13
2022-12-03T03:36:59.053Z,32.43
2022-12-03T03:39:26.767Z,37.00
2022-12-03T03:41:54.423Z,39.77
2022-12-03T03:44:22.351Z,32.33
2022-12-03T03:46:50.175Z,22.53
2022-12-03T03:49:19.243Z,36.93
2022-12-03T03:51:47.476Z,33.13
2022-12-03T03:54:15.679Z,31.40
2022-12-03T03:56:43.532Z,27.60
2022-12-03T03:59:11.261Z,31.00
2022-12-03T04:01:39.145Z,32.57
2022-12-03T04:04:15.170Z,21.60
2022-12-03T04:06:44.257Z,25.60
2022-12-03T04:09:11.992Z,35.40
2022-12-03T04:11:57.027Z,31.40
2022-12-03T04:14:24.888Z,29.87
2022-12-03T04:16:52.771Z,26.87
2022-12-03T04:19:20.457Z,31.20
2022-12-03T04:22:07.047Z,31.43
2022-12-03T04:24:34.697Z,36.67
2022-12-03T04:27:20.000Z,21.90
2022-12-03T04:29:47.646Z,24.20
2022-12-03T04:32:32.983Z,24.73
2022-12-03T04:35:18.512Z,35.70
2022-12-03T04:37:47.562Z,27.47
2022-12-03T04:40:29.229Z,31.97
2022-12-03T04:42:56.867Z,19.10
2022-12-03T04:45:24.751Z,40.23
2022-12-03T04:47:52.411Z,29.63
2022-12-03T04:50:20.098Z,31.63
2022-12-03T04:52:49.110Z,39.87
2022-12-03T04:55:16.872Z,33.60
2022-12-03T04:57:44.514Z,49.60
2022-12-03T05:00:13.591Z,47.83
2022-12-03T05:02:41.431Z,37.90
2022-12-03T05:05:10.753Z,48.13
2022-12-03T05:07:38.800Z,47.03
2022-12-03T05:10:09.071Z,45.73
2022-12-03T05:12:36.762Z,40.40
2022-12-03T05:15:05.414Z,40.37
2022-12-03T05:17:33.332Z,52.43
2022-12-03T05:20:18.880Z,36.70
2022-12-03T05:22:46.623Z,39.33
2022-12-03T05:25:15.844Z,47.17
2022-12-03T05:27:43.531Z,48.50
2022-12-03T05:30:11.898Z,39.17
2022-12-03T05:32:39.584Z,43.27
2022-12-03T05:35:07.851Z,47.73
2022-12-03T05:37:35.556Z,52.53
2022-12-03T05:40:03.358Z,55.50
2022-12-03T05:42:49.743Z,52.03
2022-12-03T05:45:18.518Z,56.63
2022-12-03T05:47:46.284Z,35.43
2022-12-03T05:50:14.121Z,59.80
2022-12-03T05:52:41.833Z,46.30
2022-12-03T05:55:10.363Z,52.70
2022-12-03T05:57:39.670Z,46.50
2022-12-03T06:00:10.039Z,42.93
2022-12-03T06:02:37.814Z,52.77
2022-12-03T06:05:06.402Z,48.20
2022-12-03T06:07:34.123Z,41.53
2022-12-03T06:10:01.935Z,45.63
2022-12-03T06:12:29.614Z,59.60
2022-12-03T06:14:59.558Z,64.50
2022-12-03T06:17:27.248Z,58.23
2022-12-03T06:19:54.930Z,48.93
2022-12-03T06:22:22.603Z,58.97
2022-12-03T06:24:50.659Z,55.97
2022-12-03T06:27:18.693Z,41.27
2022-12-03T06:29:46.362Z,56.73
2022-12-03T06:32:15.406Z,53.37
2022-12-03T06:34:43.144Z,50.30
2022-12-03T06:37:10.850Z,47.23
2022-12-03T06:39:38.562Z,40.07
2022-12-03T06:42:06.447Z,50.10
2022-12-03T06:44:34.188Z,60.33
2022-12-03T06:47:01.918Z,54.10
2022-12-03T06:49:30.968Z,48.97
2022-12-03T06:51:58.669Z,56.70
2022-12-03T06:54:26.367Z,47.43
2022-12-03T06:56:54.230Z,48.33
2022-12-03T06:59:21.873Z,39.77
2022-12-03T07:01:49.729Z,53.77
2022-12-03T07:04:17.492Z,55.73
2022-12-03T07:06:46.507Z,55.17
2022-12-03T07:09:16.296Z,52.57
2022-12-03T07:11:44.114Z,38.80
2022-12-03T07:14:12.146Z,55.93
2022-12-03T07:16:40.318Z,47.70
2022-12-03T07:19:08.439Z,58.67
2022-12-03T07:21:36.290Z,45.13
2022-12-03T07:24:05.650Z,59.40
2022-12-03T07:26:33.731Z,57.37
2022-12-03T07:29:01.486Z,65.80
2022-12-03T07:31:29.389Z,59.27
2022-12-03T07:33:57.096Z,58.23
2022-12-03T07:36:24.870Z,56.57
2022-12-03T07:38:52.589Z,56.97
2022-12-03T07:41:21.596Z,64.17
2022-12-03T07:43:49.299Z,56.47
2022-12-03T07:46:17.034Z,57.10
2022-12-03T07:48:44.797Z,57.77
2022-12-03T07:51:15.160Z,55.63
2022-12-03T07:53:43.378Z,63.80
2022-12-03T07:56:11.207Z,54.13
2022-12-03T07:58:40.274Z,68.27
2022-12-03T08:01:08.067Z,50.00
2022-12-03T08:03:35.841Z,59.37
2022-12-03T08:06:03.533Z,70.67
2022-12-03T08:08:31.225Z,66.40
2022-12-03T08:10:58.899Z,51.10
2022-12-03T08:13:26.579Z,53.47
2022-12-03T08:15:56.964Z,57.33
2022-12-03T08:18:24.713Z,56.23
2022-12-03T08:20:53.163Z,70.33
2022-12-03T08:23:22.822Z,65.63
2022-12-03T08:25:52.274Z,55.10
2022-12-03T08:28:21.558Z,49.07
2022-12-03T08:31:02.466Z,61.27
2022-12-03T08:33:33.626Z,52.40
2022-12-03T08:36:02.808Z,60.80
2022-12-03T08:38:30.773Z,62.50
2022-12-03T08:40:59.075Z,60.97
2022-12-03T08:43:28.586Z,56.03
2022-12-03T08:45:57.931Z,67.80
2022-12-03T08:48:29.636Z,60.47
2022-12-03T08:50:58.993Z,54.87
2022-12-03T08:53:37.749Z,64.87
2022-12-03T08:56:14.247Z,63.93
2022-12-03T08:58:44.389Z,57.27
2022-12-03T09:01:34.898Z,42.67
2022-12-03T09:04:20.428Z,60.83
2022-12-03T09:06:48.280Z,70.53
2022-12-03T09:09:16.033Z,70.40
2022-12-03T09:11:44.230Z,50.57
2022-12-03T09:14:18.104Z,65.33
2022-12-03T09:16:46.412Z,54.03
2022-12-03T09:19:16.113Z,48.27
2022-12-03T09:21:43.800Z,53.90
2022-12-03T09:24:11.570Z,40.63
2022-12-03T09:26:39.445Z,61.60
2022-12-03T09:29:11.915Z,58.93
2022-12-03T09:31:40.396Z,63.80
2022-12-03T09:34:08.321Z,60.43
2022-12-03T09:36:37.393Z,69.13
2022-12-03T09:39:05.315Z,71.63
2022-12-03T09:41:33.104Z,67.30
2022-12-03T09:44:05.184Z,58.40
2022-12-03T09:46:34.839Z,19.30
2022-12-03T09:49:03.272Z,68.73
2022-12-03T09:51:33.499Z,78.27
2022-12-03T09:54:03.844Z,75.23
2022-12-03T09:56:32.396Z,61.57
2022-12-03T09:59:00.609Z,55.27
2022-12-03T10:01:30.562Z,55.07
2022-12-03T10:03:59.459Z,69.13
2022-12-03T10:06:27.304Z,73.90
2022-12-03T10:08:56.292Z,67.07
2022-12-03T10:11:27.123Z,48.00
2022-12-03T10:13:56.363Z,57.27
2022-12-03T10:16:24.796Z,65.60
2022-12-03T10:18:54.436Z,67.97
2022-12-03T10:21:26.648Z,67.03
2022-12-03T10:24:19.008Z,54.80
2022-12-03T10:26:49.653Z,47.03
2022-12-03T10:29:20.296Z,62.03
2022-12-03T10:31:56.827Z,70.27
2022-12-03T10:34:31.508Z,67.40
2022-12-03T10:37:11.340Z,61.37
2022-12-03T10:39:57.553Z,73.27
2022-12-03T10:42:27.456Z,56.07
2022-12-03T10:45:16.890Z,59.10
2022-12-03T10:47:45.895Z,59.47
2022-12-03T10:50:19.399Z,66.20
2022-12-03T10:52:47.889Z,70.40
2022-12-03T10:55:16.902Z,54.30
2022-12-03T10:57:46.992Z,57.77
2022-12-03T11:00:17.368Z,66.50
2022-12-03T11:02:45.492Z,45.30
2022-12-03T11:05:15.289Z,56.77
2022-12-03T11:07:43.789Z,59.63
2022-12-03T11:10:57.178Z,55.97
2022-12-03T11:13:48.130Z,65.00
2022-12-03T11:17:10.136Z,63.97
2022-12-03T11:19:49.809Z,62.57
2022-12-03T11:22:46.002Z,44.27
2022-12-03T11:26:06.373Z,63.50
2022-12-03T11:29:00.774Z,61.17
2022-12-03T11:31:41.718Z,40.27
2022-12-03T11:34:56.482Z,51.77
2022-12-03T11:37:31.268Z,56.53
2022-12-03T11:44:54.178Z,54.77
2022-12-03T12:04:48.096Z,61.93
2022-12-03T12:12:01.706Z,47.30
2022-12-03T12:14:54.268Z,55.20
2022-12-03T12:22:05.561Z,56.70
2022-12-03T12:49:37.127Z,48.37
2022-12-03T12:56:57.554Z,63.00
2022-12-03T13:06:58.378Z,50.67
2022-12-03T13:09:27.903Z,56.13
2022-12-03T13:11:58.328Z,62.63
2022-12-03T13:14:27.632Z,58.67
2022-12-03T13:16:57.603Z,51.63
2022-12-03T13:19:27.420Z,53.10
2022-12-03T13:21:56.961Z,57.80
2022-12-03T13:24:32.689Z,58.03
2022-12-03T13:27:03.496Z,54.77
2022-12-03T13:29:33.174Z,51.33
2022-12-03T13:32:03.637Z,56.13
2022-12-03T13:34:33.738Z,52.23
2022-12-03T13:37:02.633Z,69.27
2022-12-03T13:39:34.960Z,59.93
2022-12-03T13:42:36.039Z,55.03
2022-12-03T13:45:07.642Z,58.60
2022-12-03T13:47:35.329Z,60.07
2022-12-03T13:50:08.314Z,64.60
2022-12-03T13:52:36.124Z,58.50
2022-12-03T13:55:08.222Z,61.90
2022-12-03T13:57:35.959Z,64.10
2022-12-03T14:00:04.657Z,58.17
2022-12-03T14:02:32.696Z,63.73
2022-12-03T14:05:00.939Z,60.53
2022-12-03T14:07:28.909Z,58.57
2022-12-03T14:09:57.077Z,59.23
2022-12-03T14:12:33.432Z,53.63
2022-12-03T14:15:01.351Z,59.47
2022-12-03T14:17:29.485Z,60.03
2022-12-03T14:19:57.423Z,53.07
2022-12-03T14:22:25.579Z,58.57
2022-12-03T14:24:53.791Z,58.73
2022-12-03T14:27:22.353Z,53.23
2022-12-03T14:29:52.493Z,39.83
2022-12-03T14:32:20.520Z,63.53
2022-12-03T14:34:48.210Z,63.73
2022-12-03T14:37:16.078Z,55.17
2022-12-03T14:39:43.762Z,66.53
2022-12-03T14:42:14.434Z,64.37
2022-12-03T14:44:43.187Z,65.13
2022-12-03T14:47:12.573Z,60.17
2022-12-03T14:49:40.821Z,65.57
2022-12-03T14:52:12.142Z,41.97
2022-12-03T14:54:41.978Z,60.60
2022-12-03T14:57:11.242Z,57.50
2022-12-03T14:59:38.950Z,53.87
2022-12-03T15:02:06.679Z,56.33
2022-12-03T15:04:35.816Z,44.03
2022-12-03T15:07:03.581Z,44.60
2022-12-03T15:09:31.370Z,57.47
2022-12-03T15:11:59.896Z,58.93
2022-12-03T15:14:27.748Z,57.23
2022-12-03T15:16:55.667Z,55.10
2022-12-03T15:19:23.444Z,55.83
2022-12-03T15:21:52.442Z,49.83
2022-12-03T15:24:20.111Z,46.73
2022-12-03T15:26:47.790Z,57.53
2022-12-03T15:29:15.464Z,51.77
2022-12-03T15:31:43.158Z,53.67
2022-12-03T15:34:10.874Z,62.70
2022-12-03T15:36:38.596Z,61.00
2022-12-03T15:39:07.724Z,63.10
2022-12-03T15:41:35.369Z,57.30
2022-12-03T15:44:03.352Z,52.73
2022-12-03T15:46:32.222Z,50.23
2022-12-03T15:49:00.082Z,40.43
2022-12-03T15:51:27.889Z,58.00
2022-12-03T15:53:55.609Z,53.03
2022-12-03T15:56:24.629Z,51.53
2022-12-03T15:58:53.448Z,61.93
2022-12-03T16:01:21.229Z,51.03
2022-12-03T16:03:48.979Z,52.17
2022-12-03T16:06:18.133Z,50.60
2022-12-03T16:08:46.039Z,38.70
2022-12-03T16:11:13.807Z,56.40
2022-12-03T16:13:42.873Z,52.70
2022-12-03T16:16:10.628Z,43.07
2022-12-03T16:18:38.378Z,51.00
2022-12-03T16:21:06.213Z,49.77
2022-12-03T16:23:33.993Z,34.07
2022-12-03T16:26:01.683Z,48.83
2022-12-03T16:28:29.391Z,37.47
2022-12-03T16:30:58.499Z,51.87
2022-12-03T16:33:28.006Z,32.70
2022-12-03T16:35:55.943Z,47.50
2022-12-03T16:38:23.858Z,39.57
2022-12-03T16:40:51.569Z,36.77
2022-12-03T16:43:19.562Z,33.70
2022-12-03T16:46:09.872Z,44.17
2022-12-03T16:48:38.945Z,43.37
2022-12-03T16:51:06.936Z,47.07
2022-12-03T16:53:35.052Z,117.73
2022-12-03T16:56:02.927Z,47.80
2022-12-03T16:58:30.674Z,51.20
2022-12-03T17:00:58.363Z,42.53
2022-12-03T17:03:32.048Z,52.30
2022-12-03T17:06:03.289Z,40.13
2022-12-03T17:08:31.473Z,50.57
2022-12-03T17:10:59.301Z,53.17
2022-12-03T17:13:27.067Z,51.10
2022-12-03T17:15:54.829Z,37.43
2022-12-03T17:18:22.864Z,46.77
2022-12-03T17:20:50.663Z,54.83
2022-12-03T17:23:19.726Z,53.20
2022-12-03T17:25:47.425Z,30.03
2022-12-03T17:28:15.193Z,34.13
2022-12-03T17:30:44.126Z,49.97
2022-12-03T17:33:11.905Z,40.60
2022-12-03T17:35:39.642Z,53.90
2022-12-03T17:38:09.023Z,53.83
2022-12-03T17:40:38.202Z,55.73
2022-12-03T17:43:05.931Z,35.27
2022-12-03T17:45:33.626Z,52.50
2022-12-03T17:48:01.473Z,29.57
2022-12-03T17:50:29.240Z,53.57
2022-12-03T17:52:57.003Z,51.20
2022-12-03T17:55:35.963Z,43.43
2022-12-03T17:58:07.556Z,46.70
2022-12-03T18:00:35.386Z,29.97
2022-12-03T18:03:03.131Z,35.93
2022-12-03T18:05:30.916Z,58.03
2022-12-03T18:07:58.621Z,36.73
2022-12-03T18:10:26.407Z,49.40
2022-12-03T18:12:59.829Z,44.20
2022-12-03T18:15:31.106Z,40.50
2022-12-03T18:17:58.932Z,43.67
2022-12-03T18:20:27.114Z,45.70
2022-12-03T18:22:54.881Z,42.93
2022-12-03T18:25:22.616Z,42.30
2022-12-03T18:27:50.294Z,43.83
2022-12-03T18:30:18.406Z,40.77
2022-12-03T18:32:47.760Z,40.90
2022-12-03T18:35:15.548Z,44.57
2022-12-03T18:37:43.340Z,41.23
2022-12-03T18:40:17.699Z,45.13
2022-12-03T18:42:45.617Z,28.37
2022-12-03T18:45:14.767Z,42.27
2022-12-03T18:47:42.839Z,39.53
2022-12-03T18:50:12.870Z,47.90
2022-12-03T18:52:40.758Z,49.37
2022-12-03T18:55:09.748Z,40.97
2022-12-03T18:57:37.397Z,48.53
2022-12-03T19:00:13.087Z,41.40
2022-12-03T19:05:30.970Z,34.53
2022-12-03T19:07:58.867Z,26.03
2022-12-03T19:10:27.019Z,49.37
2022-12-03T19:12:54.722Z,41.63
2022-12-03T19:15:22.814Z,38.07
2022-12-03T19:17:51.028Z,36.43
2022-12-03T19:20:19.064Z,45.37
2022-12-03T19:22:48.199Z,41.77
2022-12-03T19:25:16.223Z,49.60
2022-12-03T19:27:44.465Z,49.20
2022-12-03T19:30:13.049Z,35.57
2022-12-03T19:32:40.726Z,51.67
2022-12-03T19:35:11.330Z,42.57
2022-12-03T19:37:39.230Z,49.80
2022-12-03T19:40:11.255Z,50.10
2022-12-03T19:42:40.280Z,38.03
2022-12-03T19:45:08.871Z,45.33
2022-12-03T19:47:37.216Z,44.70
2022-12-03T19:50:05.987Z,46.70
2022-12-03T19:52:36.096Z,53.40
2022-12-03T19:55:03.873Z,54.20
2022-12-03T19:57:32.894Z,50.47
2022-12-03T20:00:01.143Z,55.70
2022-12-03T20:02:28.913Z,52.93
2022-12-03T20:04:56.833Z,47.00
2022-12-03T20:07:24.570Z,49.13
2022-12-03T20:09:52.801Z,41.77
2022-12-03T20:12:20.690Z,36.70
2022-12-03T20:14:50.159Z,53.30
2022-12-03T20:17:17.843Z,50.73
2022-12-03T20:19:45.573Z,42.13
2022-12-03T20:22:13.258Z,46.30
2022-12-03T20:24:40.978Z,51.27
2022-12-03T20:27:08.702Z,52.10
2022-12-03T20:29:36.393Z,38.90
2022-12-03T20:32:06.996Z,50.77
2022-12-03T20:34:35.835Z,43.57
2022-12-03T20:37:03.676Z,35.57
2022-12-03T20:39:31.368Z,40.93
2022-12-03T20:41:59.093Z,34.63
2022-12-03T20:44:26.960Z,58.50
2022-12-03T20:46:54.646Z,52.80
2022-12-03T20:49:24.224Z,48.97
2022-12-03T20:51:52.168Z,48.13
2022-12-03T20:54:19.937Z,47.57
2022-12-03T20:56:47.652Z,54.53
2022-12-03T20:59:16.912Z,51.07
2022-12-03T21:01:45.491Z,46.03
2022-12-03T21:04:14.602Z,58.43
2022-12-03T21:06:43.706Z,40.93
2022-12-03T21:09:13.101Z,62.10
2022-12-03T21:11:42.503Z,58.13
2022-12-03T21:14:12.046Z,64.37
2022-12-03T21:19:29.844Z,58.20
2022-12-03T21:22:01.364Z,51.80
2022-12-03T21:24:29.882Z,55.87
2022-12-03T21:26:57.813Z,54.13
2022-12-03T21:29:25.812Z,59.30
2022-12-03T21:31:53.688Z,55.27
2022-12-03T21:34:21.385Z,62.00
2022-12-03T21:36:49.154Z,63.13
2022-12-03T21:39:18.704Z,66.50
2022-12-03T21:42:22.328Z,40.00
2022-12-03T21:44:34.970Z,60.43
2022-12-03T21:47:10.312Z,62.43
2022-12-03T21:49:42.221Z,72.07
2022-12-03T21:52:10.172Z,44.27
2022-12-03T21:54:39.225Z,59.27
2022-12-03T21:57:06.942Z,60.90
2022-12-03T21:59:34.696Z,54.07
2022-12-03T22:02:02.545Z,57.47
2022-12-03T22:04:30.397Z,46.97
2022-12-03T22:06:58.075Z,64.80
2022-12-03T22:09:26.958Z,65.03
2022-12-03T22:11:59.149Z,52.30
2022-12-03T22:14:27.775Z,46.47
2022-12-03T22:16:55.550Z,57.63
2022-12-03T22:19:24.079Z,57.33
2022-12-03T22:21:51.891Z,59.10
2022-12-03T22:24:19.969Z,69.87
2022-12-03T22:26:48.067Z,70.63
2022-12-03T22:29:17.083Z,71.50
2022-12-03T22:31:44.819Z,53.03
2022-12-03T22:34:12.525Z,70.93
2022-12-03T22:36:40.173Z,73.43
2022-12-03T22:39:07.917Z,60.60
2022-12-03T22:41:35.615Z,68.90
2022-12-03T22:44:03.264Z,52.97
2022-12-03T22:46:32.579Z,56.23
2022-12-03T22:49:06.442Z,63.57
2022-12-03T22:51:35.692Z,56.03
2022-12-03T22:54:03.415Z,65.83
2022-12-03T22:56:31.922Z,60.17
2022-12-03T22:59:00.103Z,71.70
2022-12-03T23:01:29.708Z,57.27
2022-12-03T23:03:59.028Z,68.77
2022-12-03T23:06:27.387Z,68.73
2022-12-03T23:08:55.800Z,60.33
2022-12-03T23:11:24.012Z,67.40
2022-12-03T23:13:51.736Z,60.30
2022-12-03T23:16:21.285Z,60.80
2022-12-03T23:18:49.450Z,76.27
2022-12-03T23:21:27.073Z,71.87
2022-12-03T23:23:57.004Z,48.23
2022-12-03T23:26:24.699Z,76.47
2022-12-03T23:28:52.476Z,40.73
2022-12-03T23:31:22.982Z,42.10
2022-12-03T23:33:51.548Z,51.43
2022-12-03T23:36:21.488Z,52.87
2022-12-03T23:38:49.492Z,73.73
2022-12-03T23:41:19.535Z,54.80
2022-12-03T23:43:47.561Z,67.27
2022-12-03T23:46:16.818Z,72.17
2022-12-03T23:48:45.334Z,57.37
2022-12-03T23:51:15.344Z,55.17
2022-12-03T23:53:44.740Z,65.43
2022-12-03T23:56:15.466Z,65.47
2022-12-03T23:58:43.875Z,64.20
